Time;durP1;ratioP1;P1;durP2;ratioP2;P2;SDS_P1;SDS_P2;PMS_P1;PMS_P2;Temp;Humidity;BMP_temperature;BMP_pressure;BME280_temperature;BME280_humidity;BME280_pressure;Samples;Min_cycle;Max_cycle;Signal;HPM_P1;HPM_P2
2021/04/08 00:01:46;;;;;;;53.53;43.73;;;2.60;51.80;;;;;;6275936;28;20532;-59
2021/04/08 00:04:49;;;;;;;46.60;35.80;;;2.50;51.60;;;;;;6273918;28;20551;-59
2021/04/08 00:07:54;;;;;;;35.00;28.83;;;2.60;52.00;;;;;;6276485;28;20474;-59
2021/04/08 00:10:56;;;;;;;31.47;24.70;;;2.50;51.80;;;;;;6275920;28;20463;-59
2021/04/08 00:13:58;;;;;;;30.50;26.50;;;2.50;52.10;;;;;;6276221;28;20485;-59
2021/04/08 00:17:02;;;;;;;21.20;18.00;;;2.40;52.20;;;;;;6268310;28;20466;-59
2021/04/08 00:20:08;;;;;;;19.63;15.37;;;2.30;52.30;;;;;;6277305;28;20481;-59
2021/04/08 00:23:11;;;;;;;18.57;13.10;;;2.30;52.70;;;;;;6277436;28;20490;-59
2021/04/08 00:26:14;;;;;;;16.67;11.87;;;2.30;52.40;;;;;;6277638;28;20478;-59
2021/04/08 00:29:16;;;;;;;16.10;12.97;;;2.30;52.90;;;;;;6276992;28;20463;-59
2021/04/08 00:32:18;;;;;;;16.77;10.63;;;2.10;53.10;;;;;;6277166;28;20470;-59
2021/04/08 00:35:20;;;;;;;12.07;10.20;;;2.10;52.90;;;;;;6276692;28;21008;-60
2021/04/08 00:38:23;;;;;;;13.97;9.83;;;2.10;53.00;;;;;;6276958;28;20470;-59
2021/04/08 00:41:26;;;;;;;12.47;9.10;;;2.10;53.10;;;;;;6277114;28;20470;-59
2021/04/08 00:44:28;;;;;;;11.40;9.77;;;2.10;52.70;;;;;;6276573;28;20970;-59
2021/04/08 00:47:30;;;;;;;12.40;9.57;;;2.00;52.40;;;;;;6276746;28;20466;-59
2021/04/08 00:50:33;;;;;;;17.80;11.30;;;2.00;52.20;;;;;;6276794;28;20474;-59
2021/04/08 00:53:36;;;;;;;12.63;10.17;;;1.90;52.20;;;;;;6276612;28;20486;-59
2021/04/08 00:56:39;;;;;;;11.30;9.70;;;2.00;52.50;;;;;;6276047;28;20466;-60
2021/04/08 00:59:41;;;;;;;18.63;12.07;;;2.00;52.50;;;;;;6276078;28;20474;-59
2021/04/08 01:02:44;;;;;;;14.80;11.43;;;2.00;52.60;;;;;;6276303;28;20488;-59
2021/04/08 01:05:46;;;;;;;19.30;13.10;;;2.00;52.80;;;;;;6276298;28;20466;-59
2021/04/08 01:08:49;;;;;;;19.43;12.10;;;2.00;52.90;;;;;;6276098;28;20794;-59
2021/04/08 01:11:51;;;;;;;23.23;12.40;;;1.90;53.40;;;;;;6276540;28;20500;-59
2021/04/08 01:14:54;;;;;;;17.00;11.10;;;1.90;54.00;;;;;;6275820;28;20474;-59
2021/04/08 01:18:02;;;;;;;15.10;10.70;;;1.80;54.30;;;;;;6276218;28;20470;-59
2021/04/08 01:21:12;;;;;;;15.57;11.07;;;1.80;53.50;;;;;;6271982;28;20485;-59
2021/04/08 01:24:55;;;;;;;10.47;7.87;;;1.80;53.90;;;;;;6275725;28;20489;-59
2021/04/08 01:28:15;;;;;;;10.17;6.40;;;1.80;54.60;;;;;;6275712;28;20462;-59
2021/04/08 01:31:19;;;;;;;7.03;5.87;;;1.80;54.40;;;;;;6275690;28;20896;-59
2021/04/08 01:34:23;;;;;;;8.20;7.37;;;1.70;54.00;;;;;;6275509;28;20490;-59
2021/04/08 01:37:30;;;;;;;8.13;6.53;;;1.70;53.70;;;;;;6275411;28;20914;-59
2021/04/08 01:40:33;;;;;;;8.93;7.50;;;1.60;53.60;;;;;;6275379;28;20473;-59
2021/04/08 01:43:38;;;;;;;8.97;7.33;;;1.60;53.90;;;;;;6275514;28;20481;-59
2021/04/08 01:46:47;;;;;;;7.23;5.53;;;1.60;54.30;;;;;;6275058;28;20466;-59
2021/04/08 01:49:52;;;;;;;7.53;5.70;;;1.60;54.60;;;;;;6275195;28;20507;-59
2021/04/08 01:52:55;;;;;;;7.33;5.30;;;1.50;54.50;;;;;;6274916;28;20474;-60
2021/04/08 01:56:01;;;;;;;8.33;6.60;;;1.50;54.50;;;;;;6275101;28;20470;-60
2021/04/08 01:59:04;;;;;;;8.77;5.63;;;1.50;55.20;;;;;;6275183;28;20484;-60
2021/04/08 02:02:11;;;;;;;9.73;6.00;;;1.40;55.60;;;;;;6274920;28;20546;-59
2021/04/08 02:05:16;;;;;;;9.40;5.60;;;1.40;55.40;;;;;;6274693;28;20553;-60
2021/04/08 02:08:20;;;;;;;6.73;5.77;;;1.40;55.10;;;;;;6274116;28;20465;-59
2021/04/08 02:11:25;;;;;;;8.50;5.40;;;1.30;54.90;;;;;;6275051;28;20985;-60
2021/04/08 02:14:31;;;;;;;5.47;4.93;;;1.30;55.00;;;;;;6274661;28;20982;-59
2021/04/08 02:17:37;;;;;;;6.73;4.50;;;1.30;54.90;;;;;;6274759;28;20470;-59
2021/04/08 02:20:40;;;;;;;5.10;4.50;;;1.30;54.80;;;;;;6275301;28;20477;-60
2021/04/08 02:23:44;;;;;;;6.50;3.83;;;1.30;54.90;;;;;;6274438;28;20466;-63
2021/04/08 02:26:49;;;;;;;5.33;4.53;;;1.30;54.90;;;;;;6275014;28;20470;-63
2021/04/08 02:29:53;;;;;;;8.23;6.00;;;1.30;54.80;;;;;;6274592;28;20563;-63
2021/04/08 02:32:56;;;;;;;8.53;6.50;;;1.30;54.60;;;;;;6274931;28;20471;-63
2021/04/08 02:36:00;;;;;;;8.37;6.93;;;1.20;54.80;;;;;;6274784;28;20801;-63
2021/04/08 02:39:07;;;;;;;13.50;11.33;;;1.20;54.80;;;;;;6274408;28;20482;-63
2021/04/08 02:42:11;;;;;;;17.40;15.57;;;1.20;54.80;;;;;;6274554;28;20489;-63
2021/04/08 02:45:14;;;;;;;19.37;16.70;;;1.20;54.80;;;;;;6273948;28;20979;-59
2021/04/08 02:48:19;;;;;;;21.60;17.30;;;1.20;54.50;;;;;;6274299;28;20485;-60
2021/04/08 02:51:26;;;;;;;22.43;18.67;;;1.20;55.10;;;;;;6274341;28;20795;-63
2021/04/08 02:54:36;;;;;;;24.63;18.87;;;1.20;54.50;;;;;;6274123;28;20532;-63
2021/04/08 02:57:47;;;;;;;18.00;16.07;;;1.20;54.30;;;;;;6274263;28;20813;-62
2021/04/08 03:00:54;;;;;;;26.23;17.90;;;1.10;54.30;;;;;;6274253;28;20481;-62
2021/04/08 03:04:00;;;;;;;21.43;16.53;;;1.10;54.50;;;;;;6274092;28;20954;-61
2021/04/08 03:07:03;;;;;;;17.97;13.33;;;1.10;54.90;;;;;;6274643;28;20470;-61
2021/04/08 03:10:09;;;;;;;13.60;12.23;;;0.90;55.60;;;;;;6274060;28;20480;-61
2021/04/08 03:13:13;;;;;;;14.40;11.40;;;0.90;55.50;;;;;;6274183;28;20454;-61
2021/04/08 03:16:21;;;;;;;14.00;11.87;;;0.90;55.40;;;;;;6274093;28;20485;-61
2021/04/08 03:19:25;;;;;;;13.10;11.73;;;0.90;55.50;;;;;;6275458;28;20423;-61
2021/04/08 03:22:28;;;;;;;11.80;10.60;;;0.80;55.50;;;;;;6278808;28;20442;-61
2021/04/08 03:25:30;;;;;;;12.00;10.37;;;0.80;55.60;;;;;;6278535;28;20544;-61
2021/04/08 03:28:36;;;;;;;13.30;11.47;;;0.80;55.40;;;;;;6265493;28;20470;-61
2021/04/08 03:31:41;;;;;;;11.10;9.90;;;0.70;55.70;;;;;;6278623;28;20470;-61
2021/04/08 03:34:46;;;;;;;8.67;6.30;;;0.70;56.20;;;;;;6278521;28;20462;-62
2021/04/08 03:37:49;;;;;;;7.93;5.40;;;0.80;56.80;;;;;;6278630;28;20481;-61
2021/04/08 03:40:51;;;;;;;7.67;5.97;;;0.70;56.70;;;;;;6278406;28;20473;-61
2021/04/08 03:43:54;;;;;;;8.80;6.83;;;0.70;56.70;;;;;;6277923;28;20883;-62
2021/04/08 03:46:59;;;;;;;8.67;7.20;;;0.80;57.20;;;;;;6278380;28;20489;-62
2021/04/08 03:50:02;;;;;;;6.30;5.47;;;0.80;56.80;;;;;;6278202;28;20470;-61
2021/04/08 03:53:05;;;;;;;6.70;6.00;;;0.80;56.80;;;;;;6278019;28;20485;-61
2021/04/08 03:56:09;;;;;;;6.67;6.00;;;0.80;56.80;;;;;;6277619;28;20977;-60
2021/04/08 03:59:12;;;;;;;6.43;5.83;;;0.70;56.70;;;;;;6277788;28;20478;-60
2021/04/08 04:02:16;;;;;;;7.20;5.70;;;0.70;57.30;;;;;;6278030;28;20516;-60
2021/04/08 04:05:20;;;;;;;6.33;5.43;;;0.70;57.30;;;;;;6277794;28;20469;-60
2021/04/08 04:08:22;;;;;;;5.30;4.80;;;0.80;56.80;;;;;;6278051;28;20485;-60
2021/04/08 04:11:25;;;;;;;5.97;4.60;;;0.80;56.70;;;;;;6277840;28;20474;-60
2021/04/08 04:14:29;;;;;;;6.50;4.80;;;0.70;56.30;;;;;;6277460;28;20489;-60
2021/04/08 04:17:32;;;;;;;6.17;4.60;;;0.70;56.40;;;;;;6277246;28;20508;-61
2021/04/08 04:20:35;;;;;;;5.17;4.70;;;0.60;56.60;;;;;;6277545;28;20490;-61
2021/04/08 04:23:38;;;;;;;6.53;5.20;;;0.60;57.10;;;;;;6277030;28;20471;-61
2021/04/08 04:26:40;;;;;;;4.77;4.30;;;0.60;57.00;;;;;;6277343;28;20485;-61
2021/04/08 04:29:43;;;;;;;6.90;6.40;;;0.60;56.90;;;;;;6277042;28;20481;-61
2021/04/08 04:32:45;;;;;;;6.57;5.87;;;0.70;57.10;;;;;;6271772;28;20478;-61
2021/04/08 04:35:48;;;;;;;7.40;6.60;;;0.70;57.30;;;;;;6276774;28;20474;-60
2021/04/08 04:38:50;;;;;;;6.90;5.90;;;0.70;57.30;;;;;;6276730;28;20993;-62
2021/04/08 04:41:52;;;;;;;6.17;5.07;;;0.70;57.80;;;;;;6276932;28;20981;-61
2021/04/08 04:44:54;;;;;;;8.63;5.90;;;0.70;58.10;;;;;;6276747;28;20487;-60
2021/04/08 04:47:57;;;;;;;6.83;6.13;;;0.70;58.10;;;;;;6276650;28;20476;-60
2021/04/08 04:51:02;;;;;;;18.23;7.17;;;0.80;58.10;;;;;;6276686;28;20466;-60
2021/04/08 04:54:05;;;;;;;7.80;7.00;;;0.90;58.00;;;;;;6276311;28;20474;-60
2021/04/08 04:57:08;;;;;;;7.23;6.07;;;0.90;57.70;;;;;;6276585;28;20485;-60
2021/04/08 05:00:11;;;;;;;7.77;6.50;;;0.90;57.40;;;;;;6276165;28;20466;-61
2021/04/08 05:03:13;;;;;;;11.00;7.23;;;0.90;56.80;;;;;;6276667;28;20549;-62
2021/04/08 05:06:16;;;;;;;6.67;5.90;;;1.00;56.90;;;;;;6276384;28;20635;-62
2021/04/08 05:09:19;;;;;;;8.60;7.33;;;1.10;57.00;;;;;;6276296;28;20485;-62
2021/04/08 05:12:21;;;;;;;8.43;7.13;;;1.10;57.10;;;;;;6276082;28;20478;-61
2021/04/08 05:15:23;;;;;;;9.33;7.10;;;1.20;57.10;;;;;;6275844;28;20488;-61
2021/04/08 05:18:46;;;;;;;7.73;7.03;;;1.20;57.10;;;;;;6276336;28;20474;-61
2021/04/08 05:21:50;;;;;;;12.03;7.70;;;1.30;57.70;;;;;;6275931;28;20467;-61
2021/04/08 05:24:53;;;;;;;8.10;6.70;;;1.50;57.90;;;;;;6275411;28;20487;-61
2021/04/08 05:27:55;;;;;;;8.70;7.57;;;1.50;56.70;;;;;;6275873;28;20478;-60
2021/04/08 05:30:57;;;;;;;11.70;7.47;;;1.60;56.30;;;;;;6275496;28;20485;-61
2021/04/08 05:33:59;;;;;;;10.07;7.87;;;1.70;56.10;;;;;;6275749;28;20478;-61
2021/04/08 05:37:03;;;;;;;8.00;6.90;;;1.80;55.70;;;;;;6276120;28;20470;-61
2021/04/08 05:40:06;;;;;;;11.73;6.43;;;1.90;55.40;;;;;;6266461;28;20478;-61
2021/04/08 05:43:08;;;;;;;10.43;6.10;;;2.00;54.90;;;;;;6275060;28;20553;-60
2021/04/08 05:46:12;;;;;;;7.90;6.30;;;2.10;54.80;;;;;;6274872;28;20453;-60
2021/04/08 05:49:14;;;;;;;8.30;6.30;;;2.20;54.80;;;;;;6275446;28;20447;-61
2021/04/08 05:52:18;;;;;;;7.60;6.33;;;2.30;54.70;;;;;;6274909;28;20474;-61
2021/04/08 05:55:21;;;;;;;7.30;5.77;;;2.40;54.30;;;;;;6275020;28;20504;-62
2021/04/08 05:58:23;;;;;;;10.87;10.07;;;2.60;54.10;;;;;;6274966;28;20918;-60
2021/04/08 06:01:25;;;;;;;10.70;7.80;;;2.80;53.80;;;;;;6275181;28;20449;-60
2021/04/08 06:04:31;;;;;;;10.13;7.13;;;3.10;53.20;;;;;;6274561;28;20489;-60
2021/04/08 06:07:34;;;;;;;9.13;6.83;;;3.40;52.30;;;;;;6275215;28;20454;-61
2021/04/08 06:10:36;;;;;;;6.20;5.50;;;3.70;51.40;;;;;;6274700;28;20958;-61
2021/04/08 06:13:38;;;;;;;6.97;6.00;;;4.20;50.50;;;;;;6274429;28;20470;-62
2021/04/08 06:16:42;;;;;;;6.90;6.20;;;5.20;48.30;;;;;;6274872;28;20474;-61
2021/04/08 06:19:45;;;;;;;5.60;5.03;;;5.80;46.10;;;;;;6274546;28;20482;-61
2021/04/08 06:22:51;;;;;;;11.50;5.70;;;6.10;45.10;;;;;;6274834;28;20484;-61
2021/04/08 06:25:59;;;;;;;8.23;5.33;;;6.50;44.60;;;;;;6274921;28;20474;-61
2021/04/08 06:29:01;;;;;;;9.43;5.17;;;7.30;43.40;;;;;;6274781;28;20549;-61
2021/04/08 06:32:22;;;;;;;19.43;6.43;;;8.60;41.40;;;;;;6274976;28;20624;-61
2021/04/08 06:35:25;;;;;;;5.67;5.23;;;9.30;39.30;;;;;;6274561;28;20470;-61
2021/04/08 06:38:28;;;;;;;7.77;4.03;;;10.10;37.60;;;;;;6274611;28;20466;-62
2021/04/08 06:41:31;;;;;;;5.27;4.77;;;10.20;35.20;;;;;;6265192;28;20466;-62
2021/04/08 06:44:34;;;;;;;4.50;3.43;;;9.40;36.80;;;;;;6274261;28;20478;-61
2021/04/08 06:47:47;;;;;;;5.63;3.77;;;8.60;37.50;;;;;;6274315;28;20470;-61
2021/04/08 06:50:51;;;;;;;4.17;3.77;;;8.10;38.90;;;;;;6274554;28;20471;-61
2021/04/08 06:53:56;;;;;;;6.57;4.60;;;7.70;39.40;;;;;;6273746;28;20671;-62
2021/04/08 06:56:59;;;;;;;4.53;3.90;;;8.20;41.30;;;;;;6277280;28;20474;-62
2021/04/08 07:00:03;;;;;;;7.23;4.50;;;10.20;38.20;;;;;;6278104;28;20977;-62
2021/04/08 07:03:07;;;;;;;5.40;4.90;;;11.40;35.70;;;;;;6277945;28;20478;-62
2021/04/08 07:06:10;;;;;;;5.73;5.10;;;13.10;33.80;;;;;;6277933;28;20469;-62
2021/04/08 07:09:14;;;;;;;5.80;4.87;;;15.10;31.20;;;;;;6277954;28;20482;-63
2021/04/08 07:12:17;;;;;;;7.03;6.20;;;17.10;28.80;;;;;;6276972;28;20471;-62
2021/04/08 07:15:23;;;;;;;8.47;5.50;;;18.10;26.90;;;;;;6277025;28;20470;-63
2021/04/08 07:18:27;;;;;;;11.67;5.97;;;19.10;26.30;;;;;;6277232;28;20466;-63
2021/04/08 07:21:30;;;;;;;6.67;5.93;;;19.50;25.00;;;;;;6277004;28;21111;-63
2021/04/08 07:24:42;;;;;;;10.43;6.30;;;18.30;25.20;;;;;;6274150;28;20493;-62
2021/04/08 07:27:44;;;;;;;9.77;5.57;;;17.20;26.50;;;;;;6277128;28;20475;-62
2021/04/08 07:30:47;;;;;;;7.23;4.60;;;16.50;26.20;;;;;;6270474;28;20474;-65
2021/04/08 07:33:49;;;;;;;5.50;5.00;;;15.60;26.60;;;;;;6263118;28;20482;-64
2021/04/08 07:36:54;;;;;;;6.57;5.17;;;14.60;27.60;;;;;;6263269;28;20470;-63
2021/04/08 07:39:58;;;;;;;5.77;5.03;;;13.80;28.30;;;;;;6277166;28;20480;-64
2021/04/08 07:43:12;;;;;;;7.83;5.30;;;13.20;29.10;;;;;;6253148;28;20993;-62
2021/04/08 07:46:30;;;;;;;6.20;5.20;;;12.30;29.80;;;;;;6252599;28;20464;-62
2021/04/08 07:49:34;;;;;;;5.87;4.90;;;11.50;31.00;;;;;;6261761;28;20450;-63
2021/04/08 07:52:37;;;;;;;6.50;5.10;;;10.90;32.10;;;;;;6277783;28;20906;-64
2021/04/08 07:55:42;;;;;;;5.10;4.20;;;10.40;32.50;;;;;;6277981;28;20775;-64
2021/04/08 07:58:45;;;;;;;6.13;4.30;;;9.90;33.70;;;;;;6276819;28;20968;-62
2021/04/08 08:01:49;;;;;;;7.13;4.57;;;9.60;34.50;;;;;;6277718;28;20470;-65
2021/04/08 08:05:16;;;;;;;5.80;4.70;;;9.30;35.10;;;;;;6253862;28;20475;-63
2021/04/08 08:08:20;;;;;;;4.20;3.60;;;9.00;35.30;;;;;;6250371;28;20917;-68
2021/04/08 08:11:24;;;;;;;4.60;3.80;;;8.50;35.60;;;;;;6250389;28;20995;-60
2021/04/08 08:14:34;;;;;;;5.40;4.30;;;8.30;36.50;;;;;;6250501;28;20479;-59
2021/04/08 08:17:36;;;;;;;5.53;3.77;;;8.10;36.80;;;;;;6250251;28;20991;-60
2021/04/08 08:20:41;;;;;;;6.03;4.80;;;8.10;37.40;;;;;;6250264;28;20467;-61
2021/04/08 08:23:44;;;;;;;4.33;3.80;;;8.10;37.40;;;;;;6249997;28;20475;-62
2021/04/08 08:26:49;;;;;;;4.50;4.10;;;7.90;37.70;;;;;;6250255;28;20463;-65
2021/04/08 08:29:57;;;;;;;5.60;3.67;;;7.80;38.20;;;;;;6249107;28;20494;-63
2021/04/08 08:33:15;;;;;;;6.30;4.87;;;7.90;38.40;;;;;;6260955;28;20474;-62
2021/04/08 08:36:17;;;;;;;3.90;3.30;;;7.80;38.20;;;;;;6273707;28;20990;-61
2021/04/08 08:39:21;;;;;;;4.03;3.73;;;8.00;38.30;;;;;;6269644;28;20587;-60
2021/04/08 08:42:25;;;;;;;5.30;4.10;;;8.20;38.30;;;;;;6272964;28;20492;-60
2021/04/08 08:45:27;;;;;;;4.73;3.57;;;8.60;38.20;;;;;;6272745;28;20467;-60
2021/04/08 08:48:29;;;;;;;5.30;2.90;;;11.20;36.60;;;;;;6274153;28;20964;-60
2021/04/08 08:51:35;;;;;;;3.20;2.63;;;14.00;31.60;;;;;;6274030;28;20474;-60
2021/04/08 08:54:38;;;;;;;3.40;2.40;;;18.00;27.60;;;;;;6237147;28;20481;-64
2021/04/08 08:57:43;;;;;;;2.77;2.17;;;20.70;24.30;;;;;;6233032;28;20471;-61
2021/04/08 09:00:46;;;;;;;2.87;1.90;;;21.40;22.80;;;;;;6233156;28;20972;-61
2021/04/08 09:03:48;;;;;;;2.20;1.60;;;21.60;22.50;;;;;;6232447;28;20691;-61
2021/04/08 09:06:52;;;;;;;1.50;1.40;;;24.30;21.30;;;;;;6224501;28;20720;-61
2021/04/08 09:09:57;;;;;;;2.17;1.97;;;26.20;19.80;;;;;;6213983;28;20315;-60
2021/04/08 09:13:01;;;;;;;2.13;1.40;;;25.80;18.80;;;;;;6201244;28;20242;-60
2021/04/08 09:16:14;;;;;;;1.80;1.70;;;24.10;19.80;;;;;;6224350;28;20225;-60
2021/04/08 09:19:27;;;;;;;2.77;1.77;;;23.60;21.90;;;;;;6223965;28;20214;-60
2021/04/08 09:22:29;;;;;;;2.50;1.70;;;21.50;23.60;;;;;;6215663;28;20196;-61
2021/04/08 09:25:34;;;;;;;1.43;1.30;;;19.10;25.70;;;;;;6200865;28;20237;-61
2021/04/08 09:28:42;;;;;;;1.67;1.50;;;17.30;28.20;;;;;;6200652;28;20836;-61
2021/04/08 09:31:47;;;;;;;1.47;1.37;;;16.20;30.50;;;;;;6199805;28;20483;-61
2021/04/08 09:35:15;;;;;;;2.10;1.83;;;16.20;31.40;;;;;;6214184;28;20494;-61
2021/04/08 09:38:18;;;;;;;2.60;1.33;;;16.10;30.90;;;;;;6224177;28;20472;-60
2021/04/08 09:41:40;;;;;;;1.53;1.30;;;15.00;31.90;;;;;;6213906;28;20483;-61
2021/04/08 09:44:45;;;;;;;1.50;1.40;;;13.90;33.50;;;;;;6224059;28;20476;-60
2021/04/08 09:47:47;;;;;;;1.80;1.70;;;13.20;34.30;;;;;;6223983;28;20468;-61
2021/04/08 09:50:51;;;;;;;2.27;1.60;;;12.80;34.70;;;;;;6223876;28;20479;-61
2021/04/08 09:54:14;;;;;;;3.60;1.60;;;13.40;34.20;;;;;;6252082;28;20481;-61
2021/04/08 09:57:38;;;;;;;1.80;1.70;;;15.70;31.60;;;;;;6268578;28;20470;-61
2021/04/08 10:00:42;;;;;;;2.57;2.37;;;17.00;29.10;;;;;;6273034;28;20639;-61
2021/04/08 10:03:44;;;;;;;1.23;1.13;;;17.50;28.60;;;;;;6272715;28;20561;-62
2021/04/08 10:06:58;;;;;;;1.67;1.40;;;18.00;28.30;;;;;;6273197;28;20551;-62
2021/04/08 10:10:00;;;;;;;1.40;1.30;;;18.50;27.60;;;;;;6297527;28;20809;-61
2021/04/08 10:13:13;;;;;;;2.30;1.87;;;18.80;26.50;;;;;;6293820;28;20485;-60
2021/04/08 10:16:16;;;;;;;1.70;1.50;;;18.80;26.40;;;;;;6271897;28;20458;-62
2021/04/08 10:19:28;;;;;;;1.50;1.40;;;18.70;25.50;;;;;;6270721;28;20285;-62
2021/04/08 10:22:40;;;;;;;1.83;1.30;;;17.80;25.80;;;;;;6270595;28;20454;-61
2021/04/08 10:25:42;;;;;;;1.50;1.40;;;16.70;26.10;;;;;;6270171;28;20468;-61
2021/04/08 10:28:46;;;;;;;1.40;1.30;;;16.20;27.10;;;;;;6270076;28;20933;-61
2021/04/08 10:31:49;;;;;;;1.20;1.10;;;16.40;27.50;;;;;;6271776;28;20473;-62
2021/04/08 10:34:52;;;;;;;1.43;1.33;;;16.60;27.40;;;;;;6272181;28;20496;-63
2021/04/08 10:37:59;;;;;;;1.60;1.50;;;16.40;27.00;;;;;;6272630;28;20474;-62
2021/04/08 10:41:02;;;;;;;3.23;1.53;;;16.00;27.20;;;;;;6261552;28;20481;-63
2021/04/08 10:44:21;;;;;;;1.30;1.20;;;15.70;26.70;;;;;;6247338;28;20475;-64
2021/04/08 10:47:26;;;;;;;2.00;1.70;;;15.60;26.80;;;;;;6279298;28;20461;-62
2021/04/08 10:50:29;;;;;;;2.37;1.73;;;15.40;26.50;;;;;;6297161;28;20918;-61
2021/04/08 10:53:31;;;;;;;2.50;1.70;;;15.40;26.70;;;;;;6296695;28;20488;-62
2021/04/08 10:56:33;;;;;;;1.20;1.17;;;15.10;26.80;;;;;;6287694;28;20469;-61
2021/04/08 10:59:41;;;;;;;2.70;1.80;;;14.30;27.00;;;;;;6296713;28;20564;-61
2021/04/08 11:02:46;;;;;;;1.83;1.63;;;14.00;27.40;;;;;;6297138;28;20470;-61
2021/04/08 11:05:48;;;;;;;1.37;1.27;;;13.80;27.70;;;;;;6284749;28;20474;-62
2021/04/08 11:08:51;;;;;;;2.17;1.43;;;13.60;27.40;;;;;;6245125;28;20900;-61
2021/04/08 11:11:55;;;;;;;2.17;1.63;;;13.60;27.50;;;;;;6245282;28;20479;-61
2021/04/08 11:14:59;;;;;;;2.90;1.50;;;13.70;28.20;;;;;;6245190;28;20494;-62
2021/04/08 11:18:08;;;;;;;1.40;1.30;;;13.80;27.20;;;;;;6245286;28;20475;-60
2021/04/08 11:21:10;;;;;;;1.80;1.40;;;14.20;26.10;;;;;;6245847;28;20475;-61
2021/04/08 11:24:15;;;;;;;2.30;1.60;;;14.30;25.20;;;;;;6256726;28;20474;-60
2021/04/08 11:27:25;;;;;;;1.60;1.50;;;14.10;25.60;;;;;;6259938;28;20466;-61
2021/04/08 11:30:29;;;;;;;1.63;1.50;;;13.90;25.30;;;;;;6267734;28;20474;-62
2021/04/08 11:33:32;;;;;;;1.40;1.30;;;13.50;25.60;;;;;;6250771;28;20486;-60
2021/04/08 11:36:35;;;;;;;2.73;1.73;;;13.30;25.60;;;;;;6271494;28;20482;-60
2021/04/08 11:39:38;;;;;;;4.03;1.77;;;12.90;25.80;;;;;;6262353;28;20474;-60
2021/04/08 11:42:42;;;;;;;1.63;1.53;;;12.70;26.20;;;;;;6275674;28;20473;-62
2021/04/08 11:45:45;;;;;;;1.40;1.30;;;12.40;26.30;;;;;;6275738;28;20474;-62
2021/04/08 11:48:48;;;;;;;2.40;1.50;;;12.20;26.90;;;;;;6276012;28;20984;-62
2021/04/08 11:52:08;;;;;;;1.63;1.27;;;12.00;27.10;;;;;;6275756;28;20483;-62
2021/04/08 11:55:12;;;;;;;1.70;1.60;;;11.90;27.20;;;;;;6275677;28;20478;-64
2021/04/08 11:58:25;;;;;;;1.80;1.70;;;12.00;27.30;;;;;;6253264;28;20956;-61
2021/04/08 12:01:34;;;;;;;1.90;1.80;;;12.50;27.20;;;;;;6242487;28;20446;-60
2021/04/08 12:04:48;;;;;;;3.77;1.67;;;13.30;26.70;;;;;;6251116;28;20478;-60
2021/04/08 12:07:51;;;;;;;2.40;1.27;;;13.80;26.00;;;;;;6273696;28;20462;-65
2021/04/08 12:10:57;;;;;;;1.70;1.60;;;13.90;26.10;;;;;;6275541;28;20482;-65
2021/04/08 12:14:03;;;;;;;1.83;1.73;;;13.60;25.50;;;;;;6275133;28;20774;-65
2021/04/08 12:17:07;;;;;;;1.63;1.53;;;13.50;26.10;;;;;;6275238;28;20485;-65
2021/04/08 12:20:15;;;;;;;2.37;1.50;;;13.60;26.30;;;;;;6275104;28;20846;-65
2021/04/08 12:23:19;;;;;;;1.70;1.60;;;13.70;26.50;;;;;;6275092;28;20830;-64
2021/04/08 12:26:31;;;;;;;1.60;1.50;;;13.70;26.60;;;;;;6275035;28;20466;-65
2021/04/08 12:29:33;;;;;;;2.47;1.53;;;13.70;27.20;;;;;;6275366;28;20474;-66
2021/04/08 12:32:35;;;;;;;4.03;1.93;;;13.60;26.90;;;;;;6251159;28;20471;-67
2021/04/08 12:35:39;;;;;;;1.80;1.70;;;13.50;26.90;;;;;;6271103;28;20977;-64
2021/04/08 12:38:41;;;;;;;2.10;1.90;;;13.40;26.60;;;;;;6275240;28;20604;-64
2021/04/08 12:41:44;;;;;;;2.33;2.10;;;13.10;26.30;;;;;;6258256;28;20463;-65
2021/04/08 12:44:46;;;;;;;1.87;1.70;;;13.10;26.30;;;;;;6249774;28;20483;-62
2021/04/08 12:47:48;;;;;;;1.80;1.70;;;13.20;26.20;;;;;;6249544;28;20467;-63
2021/04/08 12:50:53;;;;;;;2.43;1.83;;;13.40;26.40;;;;;;6249931;28;20508;-62
2021/04/08 12:53:56;;;;;;;2.30;2.10;;;13.40;26.00;;;;;;6248891;28;20486;-62
2021/04/08 12:56:58;;;;;;;1.97;1.73;;;13.40;25.70;;;;;;6249478;28;20489;-61
2021/04/08 13:00:01;;;;;;;1.30;1.20;;;13.40;25.60;;;;;;6249285;28;20471;-62
2021/04/08 13:03:04;;;;;;;1.60;1.50;;;13.50;25.80;;;;;;6269279;28;20794;-61
2021/04/08 13:06:07;;;;;;;5.70;2.10;;;13.60;25.80;;;;;;6274127;28;20543;-62
2021/04/08 13:09:09;;;;;;;2.80;2.10;;;13.50;25.40;;;;;;6273961;28;20474;-62
2021/04/08 13:12:12;;;;;;;2.60;1.90;;;13.30;25.50;;;;;;6273532;28;20500;-61
2021/04/08 13:15:15;;;;;;;4.50;2.30;;;13.20;25.90;;;;;;6273493;28;20512;-62
2021/04/08 13:18:17;;;;;;;2.27;1.70;;;13.00;26.40;;;;;;6282934;28;20469;-62
2021/04/08 13:21:20;;;;;;;1.73;1.63;;;13.00;26.60;;;;;;6297807;28;20976;-63
2021/04/08 13:24:22;;;;;;;1.90;1.80;;;12.90;26.90;;;;;;6298792;28;20480;-63
2021/04/08 13:27:24;;;;;;;2.60;2.20;;;12.90;27.20;;;;;;6298293;28;20470;-63
2021/04/08 13:30:29;;;;;;;1.70;1.60;;;12.90;27.40;;;;;;6291947;28;20504;-63
2021/04/08 13:33:31;;;;;;;2.80;1.80;;;12.70;27.70;;;;;;6273338;28;20988;-62
2021/04/08 13:36:34;;;;;;;1.83;1.73;;;12.50;28.00;;;;;;6273232;28;20478;-62
2021/04/08 13:39:37;;;;;;;4.67;1.90;;;12.70;28.20;;;;;;6263252;28;20558;-63
2021/04/08 13:42:41;;;;;;;2.30;1.97;;;12.90;27.90;;;;;;6248457;28;20475;-62
2021/04/08 13:45:44;;;;;;;1.93;1.83;;;12.90;27.50;;;;;;6248310;28;20959;-66
2021/04/08 13:48:46;;;;;;;1.90;1.80;;;12.70;27.30;;;;;;6248520;28;20798;-65
2021/04/08 13:51:49;;;;;;;2.27;2.00;;;12.50;27.00;;;;;;6248159;28;20482;-64
2021/04/08 13:54:53;;;;;;;3.30;2.57;;;12.40;27.10;;;;;;6248351;28;20823;-61
2021/04/08 13:57:55;;;;;;;5.30;2.10;;;12.20;27.40;;;;;;6249884;28;20609;-59
2021/04/08 14:00:58;;;;;;;1.77;1.67;;;12.10;27.80;;;;;;6272899;28;20462;-60
2021/04/08 14:04:03;;;;;;;2.20;1.60;;;12.10;28.00;;;;;;6271951;28;20918;-59
2021/04/08 14:07:08;;;;;;;5.23;2.40;;;12.20;27.60;;;;;;6272876;28;20458;-59
2021/04/08 14:10:12;;;;;;;3.40;1.90;;;12.50;27.50;;;;;;6272910;28;20981;-59
2021/04/08 14:13:15;;;;;;;1.93;1.83;;;12.60;27.30;;;;;;6273013;28;20467;-59
2021/04/08 14:16:17;;;;;;;3.93;2.23;;;12.50;27.10;;;;;;6272312;28;20484;-59
2021/04/08 14:19:22;;;;;;;2.43;2.23;;;12.40;27.40;;;;;;6272479;28;20805;-59
2021/04/08 14:22:28;;;;;;;1.77;1.67;;;12.40;27.80;;;;;;6272799;28;20433;-60
2021/04/08 14:25:31;;;;;;;2.00;1.80;;;12.30;27.80;;;;;;6273047;28;20572;-59
2021/04/08 14:28:33;;;;;;;3.53;1.63;;;12.10;28.50;;;;;;6272323;28;21127;-59
2021/04/08 14:31:36;;;;;;;2.20;2.00;;;12.10;29.10;;;;;;6257043;28;20613;-63
2021/04/08 14:34:38;;;;;;;2.43;1.90;;;12.00;28.40;;;;;;6260105;28;21349;-59
2021/04/08 14:37:42;;;;;;;2.13;1.80;;;12.10;28.60;;;;;;6272331;28;20462;-59
2021/04/08 14:40:45;;;;;;;1.57;1.47;;;12.10;28.60;;;;;;6275620;28;20458;-59
2021/04/08 14:43:47;;;;;;;6.03;1.67;;;12.10;28.50;;;;;;6271886;28;20473;-60
2021/04/08 14:46:49;;;;;;;2.27;1.90;;;12.20;28.20;;;;;;6271368;28;20458;-59
2021/04/08 14:49:53;;;;;;;2.97;2.00;;;12.10;28.20;;;;;;6272390;28;20478;-59
2021/04/08 14:52:56;;;;;;;2.30;2.20;;;12.20;28.30;;;;;;6271732;28;20485;-62
2021/04/08 14:56:05;;;;;;;1.57;1.47;;;12.30;28.70;;;;;;6272321;28;20467;-62
2021/04/08 14:59:07;;;;;;;2.50;1.60;;;12.40;28.40;;;;;;6265762;28;20482;-64
2021/04/08 15:02:10;;;;;;;2.40;2.13;;;12.30;27.90;;;;;;6247305;28;20466;-63
2021/04/08 15:05:13;;;;;;;2.60;1.70;;;12.20;28.10;;;;;;6248180;28;20475;-63
2021/04/08 15:08:16;;;;;;;1.70;1.60;;;12.10;28.40;;;;;;6272235;28;20461;-59
2021/04/08 15:11:19;;;;;;;3.10;2.00;;;12.00;28.40;;;;;;6271862;28;20809;-59
2021/04/08 15:14:21;;;;;;;1.83;1.63;;;12.00;28.10;;;;;;6271830;28;20474;-58
2021/04/08 15:17:23;;;;;;;2.83;1.97;;;12.10;28.70;;;;;;6276269;28;20489;-60
2021/04/08 15:20:27;;;;;;;1.77;1.63;;;12.10;28.90;;;;;;6277209;28;20569;-63
2021/04/08 15:23:30;;;;;;;2.23;1.83;;;12.10;28.60;;;;;;6276556;28;20516;-59
2021/04/08 15:26:33;;;;;;;2.17;1.80;;;12.10;28.20;;;;;;6276499;28;20984;-59
2021/04/08 15:29:35;;;;;;;1.93;1.73;;;12.00;28.30;;;;;;6276251;28;20543;-59
2021/04/08 15:32:38;;;;;;;2.50;2.23;;;11.90;27.80;;;;;;6252063;28;20475;-59
2021/04/08 15:35:41;;;;;;;2.50;1.80;;;11.70;27.90;;;;;;6273124;28;20583;-60
2021/04/08 15:38:44;;;;;;;11.10;7.10;;;11.60;28.30;;;;;;6268200;28;20822;-57
2021/04/08 15:41:46;;;;;;;3.43;2.20;;;11.60;28.80;;;;;;6251650;28;20471;-57
2021/04/08 15:44:50;;;;;;;1.90;1.80;;;11.60;29.20;;;;;;6275879;28;20570;-58
2021/04/08 15:47:52;;;;;;;2.40;1.80;;;11.60;28.90;;;;;;6260848;28;20466;-57
2021/04/08 15:50:54;;;;;;;2.70;1.70;;;11.60;28.90;;;;;;6251095;28;20973;-57
2021/04/08 15:53:57;;;;;;;2.47;1.83;;;11.60;29.10;;;;;;6250606;28;20479;-57
2021/04/08 15:57:01;;;;;;;2.40;1.83;;;11.50;29.30;;;;;;6270915;28;20977;-61
2021/04/08 16:00:04;;;;;;;1.93;1.77;;;11.30;29.10;;;;;;6261428;28;20471;-61
2021/04/08 16:03:06;;;;;;;1.67;1.57;;;11.30;29.40;;;;;;6250980;28;21025;-61